Wilton, ND (58579)

4:03 AM CDT on August 24, 2016 (GMT -0500)
136 Ave NW | | Change Station

Elev 1932 ft 46.95 °N, 100.83 °W | Updated 1 second ago

Clear
Clear
55.0 °F
Feels Like 55.0 °F
N
8.3
Wind Variable Wind from NW
Gusts 9.8 mph

Today
High -- | Low -- °F
--% Chance of Precip.
Yesterday
High -- | Low -- °F
Precip. -- in
Pressure 29.94 in
Visibility 10.0 miles
Clouds Clear
Dew Point 50 °F
Humidity 83%
Rainfall 0.00 in
Snow Depth Not available.
6:52 AM 8:37 PM
Waning Gibbous, 59% visible
METAR KBIS 240852Z AUTO 27009KT 10SM CLR 14/08 A2996 RMK AO2 SLP139 T01440083 53013
Pressure 29.94 in
Visibility 10.0 miles
Clouds Clear
Dew Point 50 °F
Humidity 83%
Rainfall 0.00 in
Snow Depth Not available.
6:52 AM 8:37 PM
Waning Gibbous, 59% visible
METAR KBIS 240852Z AUTO 27009KT 10SM CLR 14/08 A2996 RMK AO2 SLP139 T01440083 53013

10-Day Weather Forecast

Almanac

Astronomy

Aug. 24, 2016 Rise Set
Actual Time
Civil Twilight
Nautical Twilight
Astronomical Twilight
Moon
Length of Visible Light
Length of Day
Tomorrow will be .
, % of the Moon is Illuminated

Today's Extremes

State Highs State Lows

Community

WunderPhotos

Upload Photos

1,934,560 photos uploaded!

WunderBlog® & News

Nearby

Air Quality

  Air Quality AQ Index Pollutant
Not available.

Snow Depth

Station Depth Elevation

Earthquake Activity

City Distance Mag. Time & Date
Minimum magnitude displayed is 2.5.

Coastal Water Temperatures

Place Temperature

Stations

Nearby Weather Stations

Station Location Temp. Windchill Dew Point Humidity Wind Precip. Elev Updated Type
                   

Watches & Warnings

There are currently no watches in effect.